Time;durP1;ratioP1;P1;durP2;ratioP2;P2;SDS_P1;SDS_P2;PMS_P1;PMS_P2;Temp;Humidity;BMP_temperature;BMP_pressure;BME280_temperature;BME280_humidity;BME280_pressure;Samples;Min_cycle;Max_cycle;Signal;HPM_P1;HPM_P2
2021/03/17 00:01:57;;;;;;;5.53;3.20;;;;;;;0.75;87.12;94696.27;1771201;81;21158;-69
2021/03/17 00:04:43;;;;;;;4.83;3.63;;;;;;;0.66;87.17;94693.22;1706132;84;21153;-69
2021/03/17 00:07:30;;;;;;;4.53;3.43;;;;;;;0.73;86.90;94692.80;1771449;81;21150;-69
2021/03/17 00:10:17;;;;;;;4.73;3.60;;;;;;;0.69;86.59;94687.17;1705773;83;21152;-69
2021/03/17 00:13:05;;;;;;;4.43;3.27;;;;;;;0.71;86.67;94699.73;1749570;81;21598;-69
2021/03/17 00:15:55;;;;;;;4.87;3.53;;;;;;;0.68;86.65;94690.61;1705762;84;21148;-69
2021/03/17 00:18:41;;;;;;;3.70;3.30;;;;;;;0.67;86.59;94691.48;1771418;81;21139;-69
2021/03/17 00:21:27;;;;;;;4.13;3.43;;;;;;;0.68;86.50;94688.02;1705904;83;21152;-69
2021/03/17 00:24:14;;;;;;;5.07;3.60;;;;;;;0.71;86.17;94682.86;1771194;81;21110;-69
2021/03/17 00:27:00;;;;;;;5.40;2.97;;;;;;;0.71;86.14;94682.86;1720699;83;21201;-69
2021/03/17 00:29:47;;;;;;;5.90;3.60;;;;;;;0.69;86.06;94677.65;1772050;81;21142;-68
2021/03/17 00:32:34;;;;;;;5.50;4.00;;;;;;;0.72;86.21;94680.25;1726540;83;21137;-69
2021/03/17 00:35:20;;;;;;;4.10;2.50;;;;;;;0.70;86.07;94675.48;1771979;81;21679;-69
2021/03/17 00:38:07;;;;;;;4.93;3.40;;;;;;;0.71;86.05;94683.72;1726187;83;21141;-69
2021/03/17 00:40:53;;;;;;;3.50;2.63;;;;;;;0.74;85.97;94682.43;1771757;81;21174;-69
2021/03/17 00:43:40;;;;;;;2.97;2.13;;;;;;;0.78;85.68;94672.91;1726283;83;21137;-69
2021/03/17 00:46:25;;;;;;;4.63;3.50;;;;;;;0.74;85.19;94670.74;1771956;81;21269;-69
2021/03/17 00:48:54;;;;;;;3.57;2.80;;;;;;;0.75;85.39;94667.27;1725886;83;21164;-69
2021/03/17 00:51:24;;;;;;;4.17;2.77;;;;;;;0.74;85.08;94669.45;1771516;81;21131;-69
2021/03/17 00:54:10;;;;;;;4.27;3.13;;;;;;;0.76;85.03;94678.55;1726294;83;21110;-69
2021/03/17 00:56:42;;;;;;;3.67;2.17;;;;;;;0.75;84.87;94668.57;1771878;81;21359;-69
2021/03/17 00:59:12;;;;;;;4.43;2.40;;;;;;;0.75;84.71;94667.27;1726214;83;21149;-69
2021/03/17 01:01:40;;;;;;;2.07;1.33;;;;;;;0.75;84.83;94657.33;1772037;81;21269;-69
2021/03/17 01:04:09;;;;;;;4.43;3.37;;;;;;;0.73;84.67;94657.74;1726125;83;21615;-69
2021/03/17 01:06:37;;;;;;;5.40;3.93;;;;;;;0.73;84.94;94655.15;1771995;80;21276;-69
2021/03/17 01:09:05;;;;;;;6.97;3.80;;;;;;;0.78;84.81;94656.92;1726613;83;21169;-69
2021/03/17 01:11:33;;;;;;;6.27;3.73;;;;;;;0.81;84.76;94648.28;1771922;81;21284;-69
2021/03/17 01:14:01;;;;;;;7.40;4.37;;;;;;;0.83;84.70;94649.13;1726852;83;21148;-69
2021/03/17 01:16:28;;;;;;;6.90;4.70;;;;;;;0.82;84.52;94644.37;1772276;81;21170;-69
2021/03/17 01:18:57;;;;;;;6.07;3.73;;;;;;;0.84;84.60;94647.84;1726447;83;21600;-69
2021/03/17 01:21:25;;;;;;;6.13;4.20;;;;;;;0.83;84.19;94653.91;1771989;81;21300;-69
2021/03/17 01:23:53;;;;;;;6.60;3.87;;;;;;;0.89;84.12;94652.20;1726388;83;21185;-69
2021/03/17 01:26:21;;;;;;;5.67;3.37;;;;;;;0.91;84.08;94652.64;1771592;81;21169;-69
2021/03/17 01:28:48;;;;;;;4.87;2.80;;;;;;;0.85;83.76;94655.20;1771622;81;21572;-69
2021/03/17 01:31:16;;;;;;;4.67;3.33;;;;;;;0.84;83.86;94653.04;1771512;81;21599;-69
2021/03/17 01:33:44;;;;;;;7.83;4.93;;;;;;;0.83;83.97;94646.12;1706007;84;21568;-69
2021/03/17 01:36:11;;;;;;;6.20;3.97;;;;;;;0.85;84.11;94650.00;1771424;81;21106;-69
2021/03/17 01:38:39;;;;;;;9.50;3.80;;;;;;;0.83;83.95;94647.83;1705955;84;21142;-69
2021/03/17 01:41:07;;;;;;;9.40;5.70;;;;;;;0.83;83.75;94645.23;1771376;81;21545;-69
2021/03/17 01:43:34;;;;;;;9.70;5.87;;;;;;;0.84;83.97;94649.58;1771505;81;21154;-69
2021/03/17 01:46:02;;;;;;;8.47;5.87;;;;;;;0.80;84.16;94649.98;1771742;81;21135;-69
2021/03/17 01:48:32;;;;;;;10.57;5.80;;;;;;;0.79;84.21;94651.30;1771426;81;21133;-69
2021/03/17 01:51:00;;;;;;;10.13;5.70;;;;;;;0.82;84.33;94646.97;1706189;84;21161;-68
2021/03/17 01:53:31;;;;;;;8.27;5.57;;;;;;;0.82;84.21;94641.77;1771358;81;21202;-69
2021/03/17 01:55:59;;;;;;;9.13;5.70;;;;;;;0.79;84.16;94655.19;1771213;81;21576;-69
2021/03/17 01:58:30;;;;;;;6.07;4.17;;;;;;;0.81;84.27;94641.78;1771486;81;21561;-68
2021/03/17 02:00:58;;;;;;;8.97;5.43;;;;;;;0.78;84.20;94645.24;1706361;84;21160;-69
2021/03/17 02:03:28;;;;;;;8.97;5.33;;;;;;;0.79;84.45;94640.91;1771438;81;21110;-69
2021/03/17 02:05:56;;;;;;;7.93;4.67;;;;;;;0.79;84.57;94640.47;1771639;81;21134;-69
2021/03/17 02:08:37;;;;;;;5.63;3.33;;;;;;;0.74;84.30;94642.19;1771299;81;21633;-69
2021/03/17 02:11:06;;;;;;;9.27;5.60;;;;;;;0.70;84.44;94641.72;1705759;84;21141;-69
2021/03/17 02:14:03;;;;;;;7.67;3.47;;;;;;;0.72;84.49;94645.20;1771683;81;21154;-69
2021/03/17 02:16:47;;;;;;;13.63;6.23;;;;;;;0.70;84.44;94636.53;1706025;84;21102;-69
2021/03/17 02:19:23;;;;;;;9.53;5.93;;;;;;;0.70;84.38;94643.02;1771633;81;21122;-68
2021/03/17 02:22:37;;;;;;;4.07;2.80;;;;;;;0.69;84.28;94643.03;1769960;81;21110;-69
2021/03/17 02:25:27;;;;;;;11.23;6.53;;;;;;;0.71;83.81;94645.22;1771322;81;21154;-69
2021/03/17 02:28:31;;;;;;;12.17;6.70;;;;;;;0.69;84.00;94638.70;1723656;83;21176;-68
2021/03/17 02:31:22;;;;;;;8.80;5.30;;;;;;;0.68;84.18;94637.39;1771896;81;21131;-69
2021/03/17 02:34:07;;;;;;;9.03;5.13;;;;;;;0.69;84.25;94637.84;1726272;83;21587;-69
2021/03/17 02:36:49;;;;;;;7.60;4.03;;;;;;;0.65;84.13;94640.84;1772115;80;21296;-69
2021/03/17 02:39:39;;;;;;;10.40;6.43;;;;;;;0.70;84.35;94638.27;1719068;83;21576;-69
2021/03/17 02:42:39;;;;;;;7.57;4.30;;;;;;;0.69;84.29;94640.44;1771880;81;21289;-68
2021/03/17 02:45:12;;;;;;;6.53;3.80;;;;;;;0.63;84.55;94636.96;1726742;83;21129;-69
2021/03/17 02:47:50;;;;;;;9.85;5.83;;;;;;;0.53;84.28;94638.19;1772110;81;21257;-69
2021/03/17 02:50:20;;;;;;;11.10;6.10;;;;;;;0.58;84.22;94639.97;1771955;80;21110;-69
2021/03/17 02:52:53;;;;;;;10.13;5.97;;;;;;;0.60;84.37;94630.87;1772029;81;21679;-69
2021/03/17 02:55:25;;;;;;;9.47;6.60;;;;;;;0.59;84.98;94639.09;1771947;81;21304;-69
2021/03/17 02:57:56;;;;;;;7.20;4.70;;;;;;;0.58;85.02;94638.67;1771943;81;21568;-69
2021/03/17 03:00:27;;;;;;;6.57;3.87;;;;;;;0.58;84.58;94632.18;1771949;80;21288;-68
2021/03/17 03:03:00;;;;;;;7.63;4.83;;;;;;;0.53;84.34;94630.00;1726570;83;21158;-69
2021/03/17 03:05:29;;;;;;;;;;;;;;;0.54;84.56;94631.72;1774705;81;21256;-69
2021/03/17 03:08:00;;;;;;;12.50;7.37;;;;;;;0.59;84.42;94638.23;1780785;80;20235;-69
2021/03/17 03:10:30;;;;;;;8.60;4.53;;;;;;;0.60;84.41;94641.25;1780673;80;21272;-69
2021/03/17 03:13:00;;;;;;;11.20;6.00;;;;;;;0.50;84.74;94639.48;1780965;80;21114;-69
2021/03/17 03:15:29;;;;;;;4.63;3.07;;;;;;;0.48;84.94;94636.00;1780638;80;21137;-69
2021/03/17 03:18:00;;;;;;;10.73;6.10;;;;;;;0.46;84.73;94636.45;1726188;83;21186;-69
2021/03/17 03:20:32;;;;;;;8.97;5.93;;;;;;;0.44;84.82;94641.63;1772186;81;21145;-69
2021/03/17 03:23:02;;;;;;;8.13;4.67;;;;;;;0.42;85.16;94643.34;1726384;83;21162;-69
2021/03/17 03:25:30;;;;;;;9.77;5.80;;;;;;;0.42;85.29;94635.11;1771971;81;21324;-69
2021/03/17 03:28:10;;;;;;;10.47;5.87;;;;;;;0.46;84.95;94629.53;1771411;80;21169;-68
2021/03/17 03:30:28;;;;;;;12.17;8.00;;;;;;;0.47;84.89;94639.03;1704931;84;21118;-69
2021/03/17 03:32:56;;;;;;;9.33;5.37;;;;;;;0.51;84.78;94632.15;1771370;81;21142;-69
2021/03/17 03:35:24;;;;;;;9.30;6.13;;;;;;;0.46;84.71;94634.72;1705999;84;21576;-69
2021/03/17 03:37:52;;;;;;;11.10;6.90;;;;;;;0.42;85.35;94639.01;1771331;81;21114;-69
2021/03/17 03:40:21;;;;;;;10.83;6.80;;;;;;;0.40;85.31;94634.27;1771200;81;21107;-69
2021/03/17 03:42:50;;;;;;;12.30;7.17;;;;;;;0.40;85.42;94638.16;1771573;81;21154;-69
2021/03/17 03:45:20;;;;;;;7.67;4.90;;;;;;;0.41;85.51;94636.42;1771630;81;21146;-69
2021/03/17 03:47:48;;;;;;;13.73;7.57;;;;;;;0.41;85.57;94633.39;1771298;81;21165;-68
2021/03/17 03:50:21;;;;;;;10.23;6.40;;;;;;;0.34;85.93;94631.62;1706015;84;21161;-69
2021/03/17 03:53:15;;;;;;;3.83;2.50;;;;;;;0.31;86.19;94636.80;1771489;81;21533;-69
2021/03/17 03:56:10;;;;;;;9.53;4.97;;;;;;;0.32;86.12;94638.97;1771337;81;21182;-69
2021/03/17 03:58:56;;;;;;;6.77;4.33;;;;;;;0.26;86.39;94632.02;1771307;81;21621;-69
2021/03/17 04:01:32;;;;;;;13.23;7.20;;;;;;;0.28;86.27;94639.39;1771488;81;21139;-69
2021/03/17 04:04:04;;;;;;;11.17;7.60;;;;;;;0.30;86.32;94630.30;1706043;84;21524;-69
2021/03/17 04:06:34;;;;;;;13.40;7.87;;;;;;;0.30;86.33;94638.94;1770598;81;21134;-69
2021/03/17 04:09:05;;;;;;;5.13;3.30;;;;;;;0.28;86.38;94637.20;1771565;81;21553;-69
2021/03/17 04:11:33;;;;;;;10.47;6.23;;;;;;;0.25;86.29;94628.97;1771462;81;21126;-69
2021/03/17 04:14:06;;;;;;;12.73;7.07;;;;;;;0.29;86.26;94635.92;1771377;81;21138;-69
2021/03/17 04:16:38;;;;;;;11.00;5.77;;;;;;;0.21;86.44;94641.08;1705760;84;21141;-68
2021/03/17 04:19:08;;;;;;;11.63;6.67;;;;;;;0.30;86.35;94644.13;1745881;81;21521;-64
2021/03/17 04:21:40;;;;;;;12.00;7.40;;;;;;;0.31;86.52;94644.59;1771468;81;21149;-65
2021/03/17 04:24:09;;;;;;;6.57;4.10;;;;;;;0.30;86.59;94638.94;1771621;81;21138;-65
2021/03/17 04:26:38;;;;;;;9.27;4.80;;;;;;;0.31;86.64;94639.40;1707617;83;21578;-65
2021/03/17 04:29:07;;;;;;;8.13;3.70;;;;;;;0.34;86.52;94640.70;1772075;80;21268;-67
2021/03/17 04:31:36;;;;;;;15.53;9.97;;;;;;;0.30;86.37;94636.78;1726230;83;21157;-66
2021/03/17 04:34:04;;;;;;;9.87;6.47;;;;;;;0.27;86.70;94633.74;1772159;81;21584;-65
2021/03/17 04:36:33;;;;;;;10.23;7.27;;;;;;;0.25;86.70;94627.67;1726249;83;21145;-64
2021/03/17 04:39:02;;;;;;;12.10;7.60;;;;;;;0.29;86.44;94639.81;1772223;81;21151;-64
2021/03/17 04:41:30;;;;;;;14.07;7.83;;;;;;;0.31;86.30;94635.51;1726523;83;21173;-66
2021/03/17 04:44:00;;;;;;;10.23;6.80;;;;;;;0.29;86.16;94638.95;1772217;81;21139;-66
2021/03/17 04:46:28;;;;;;;28.37;13.53;;;;;;;0.32;86.29;94637.66;1726750;83;21177;-66
2021/03/17 04:48:57;;;;;;;12.30;7.47;;;;;;;0.29;86.17;94641.55;1771918;81;21220;-66
2021/03/17 04:51:25;;;;;;;28.63;14.93;;;;;;;0.32;86.14;94646.31;1726475;83;21591;-66
2021/03/17 04:53:53;;;;;;;11.53;7.47;;;;;;;0.29;86.27;94642.41;1772388;81;21157;-65
2021/03/17 04:56:25;;;;;;;10.47;6.90;;;;;;;0.31;86.36;94642.43;1726507;83;21176;-66
2021/03/17 04:58:54;;;;;;;10.53;7.23;;;;;;;0.34;86.22;94645.03;1748855;81;21157;-66
2021/03/17 05:01:23;;;;;;;6.47;4.43;;;;;;;0.37;86.09;94642.02;1726384;83;21133;-66
2021/03/17 05:03:51;;;;;;;8.10;5.50;;;;;;;0.32;86.15;94638.97;1772115;81;21734;-65
2021/03/17 05:06:19;;;;;;;7.10;4.50;;;;;;;0.36;86.21;94640.73;1726472;83;21130;-66
2021/03/17 05:08:47;;;;;;;9.30;6.23;;;;;;;0.35;86.20;94642.86;1771991;81;21272;-66
2021/03/17 05:11:17;;;;;;;20.90;13.70;;;;;;;0.34;85.98;94642.00;1726457;83;21142;-66
2021/03/17 05:13:45;;;;;;;9.27;5.77;;;;;;;0.28;86.17;94643.28;1772009;80;21292;-66
2021/03/17 05:16:13;;;;;;;5.90;3.00;;;;;;;0.33;86.18;94638.98;1726467;83;21596;-66
2021/03/17 05:18:42;;;;;;;11.83;7.27;;;;;;;0.31;86.42;94640.70;1771931;80;21261;-65
2021/03/17 05:21:11;;;;;;;8.50;5.03;;;;;;;0.34;86.28;94651.08;1726540;83;21584;-66
2021/03/17 05:23:40;;;;;;;11.70;7.53;;;;;;;0.33;86.20;94638.98;1772210;81;21138;-66
2021/03/17 05:26:09;;;;;;;7.70;4.60;;;;;;;0.40;85.85;94639.86;1726215;83;21205;-66
2021/03/17 05:28:40;;;;;;;10.57;7.00;;;;;;;0.38;85.66;94643.77;1769307;80;21138;-66
2021/03/17 05:31:09;;;;;;;14.37;9.00;;;;;;;0.39;85.70;94639.44;1700350;83;21146;-65
2021/03/17 05:33:37;;;;;;;7.77;5.50;;;;;;;0.35;85.57;94646.35;1709353;83;21165;-66
2021/03/17 05:36:06;;;;;;;66.67;32.53;;;;;;;0.38;85.83;94646.36;1776542;81;21139;-66
2021/03/17 05:38:34;;;;;;;13.27;6.27;;;;;;;0.38;85.79;94636.42;1776570;80;21154;-66
2021/03/17 05:41:02;;;;;;;6.77;4.00;;;;;;;0.42;85.79;94648.53;1700468;84;21161;-66
2021/03/17 05:43:31;;;;;;;11.27;7.07;;;;;;;0.40;85.73;94640.75;1776146;80;21280;-65
2021/03/17 05:46:02;;;;;;;25.07;13.03;;;;;;;0.48;85.55;94638.20;1776524;81;21149;-66
2021/03/17 05:48:34;;;;;;;13.55;8.23;;;;;;;0.49;85.22;94642.95;1776446;80;21268;-67
2021/03/17 05:51:03;;;;;;;9.33;6.10;;;;;;;0.54;84.96;94644.70;1700678;84;21155;-67
2021/03/17 05:53:32;;;;;;;14.77;8.70;;;;;;;0.52;84.81;94645.55;1760583;81;21133;-70
2021/03/17 05:56:03;;;;;;;10.23;6.00;;;;;;;0.55;85.11;94647.72;1683159;84;21122;-73
2021/03/17 05:58:32;;;;;;;12.73;6.90;;;;;;;0.58;85.08;94642.97;1774247;80;21692;-70
2021/03/17 06:00:59;;;;;;;10.43;6.70;;;;;;;0.59;84.67;94648.62;1745745;82;21278;-72
2021/03/17 06:03:31;;;;;;;10.30;6.13;;;;;;;0.52;84.73;94652.90;1745459;82;21156;-69
2021/03/17 06:06:02;;;;;;;9.20;4.97;;;;;;;0.59;84.63;94661.59;1745797;82;21132;-69
2021/03/17 06:08:35;;;;;;;9.97;6.23;;;;;;;0.56;84.70;94665.48;1745487;82;21136;-75
2021/03/17 06:11:08;;;;;;;12.73;8.03;;;;;;;0.53;84.74;94657.66;1731621;82;21603;-75
2021/03/17 06:13:46;;;;;;;10.58;6.83;;;;;;;0.59;85.20;94666.78;1710778;84;21134;-69
2021/03/17 06:16:22;;;;;;;10.80;6.47;;;;;;;0.56;84.66;94668.08;1710532;84;21130;-68
2021/03/17 06:18:53;;;;;;;13.07;7.73;;;;;;;0.59;84.21;94663.75;1710652;84;21130;-68
2021/03/17 06:21:21;;;;;;;12.83;7.80;;;;;;;0.69;84.05;94663.80;1715121;81;21162;-68
2021/03/17 06:23:52;;;;;;;11.23;7.50;;;;;;;0.76;83.58;94658.64;1684051;84;21129;-69
2021/03/17 06:26:20;;;;;;;9.27;5.67;;;;;;;0.78;83.41;94671.61;1706841;84;21152;-66
2021/03/17 06:28:49;;;;;;;16.93;11.27;;;;;;;0.79;83.16;94669.03;1697799;83;21666;-68
2021/03/17 06:31:24;;;;;;;8.27;5.03;;;;;;;0.80;83.18;94672.49;1696427;84;21155;-68
2021/03/17 06:33:53;;;;;;;8.00;4.87;;;;;;;0.76;83.05;94675.52;1696073;84;21164;-67
2021/03/17 06:36:24;;;;;;;10.90;7.00;;;;;;;0.78;83.16;94677.70;1696383;84;21136;-66
2021/03/17 06:39:06;;;;;;;12.77;6.63;;;;;;;0.81;82.91;94671.65;1730943;83;21541;-68
2021/03/17 06:41:52;;;;;;;12.50;6.73;;;;;;;0.75;82.75;94680.26;1731062;83;21170;-67
2021/03/17 06:44:24;;;;;;;8.77;5.90;;;;;;;0.74;82.82;94684.16;1716039;83;21144;-68
2021/03/17 06:47:14;;;;;;;12.63;7.10;;;;;;;0.69;82.88;94678.95;1730888;83;21135;-66
2021/03/17 06:49:45;;;;;;;7.73;5.03;;;;;;;0.68;83.05;94679.81;1731039;83;21553;-67
2021/03/17 06:52:30;;;;;;;9.93;6.33;;;;;;;0.61;83.38;94691.89;1715758;83;21132;-71
2021/03/17 06:55:20;;;;;;;9.63;6.27;;;;;;;0.68;83.36;94685.41;1694021;80;21577;-75
2021/03/17 06:57:51;;;;;;;9.43;6.90;;;;;;;0.72;83.56;94694.97;1750992;80;21097;-73
2021/03/17 07:00:33;;;;;;;8.37;5.37;;;;;;;0.79;82.95;94698.03;1781539;80;21252;-74
2021/03/17 07:03:13;;;;;;;10.10;6.10;;;;;;;0.80;82.17;94699.32;1746591;80;21105;-72
2021/03/17 07:05:46;;;;;;;10.93;6.63;;;;;;;0.87;82.32;94696.33;1730858;82;21148;-70
2021/03/17 07:08:31;;;;;;;8.47;5.10;;;;;;;0.89;82.27;94702.41;1748250;81;21141;-74
2021/03/17 07:11:02;;;;;;;6.30;3.60;;;;;;;0.88;81.60;94695.89;1691832;84;21200;-68
2021/03/17 07:13:31;;;;;;;13.20;7.30;;;;;;;0.93;81.64;94704.56;1699870;84;21177;-70
2021/03/17 07:16:00;;;;;;;12.27;7.47;;;;;;;1.04;81.60;94702.45;1700139;84;21169;-72
2021/03/17 07:18:31;;;;;;;9.67;5.93;;;;;;;1.10;81.40;94710.70;1700140;84;21181;-79
2021/03/17 07:21:04;;;;;;;10.23;7.13;;;;;;;1.13;80.97;94713.73;1680732;84;21179;-70
2021/03/17 07:23:48;;;;;;;4.55;3.37;;;;;;;1.14;80.94;94708.55;1671482;86;21338;-69
2021/03/17 07:26:27;;;;;;;8.87;5.20;;;;;;;1.12;80.99;94708.98;1671486;86;21172;-66
2021/03/17 07:29:02;;;;;;;10.10;6.93;;;;;;;1.08;80.84;94712.41;1679510;83;21192;-69
2021/03/17 07:31:47;;;;;;;7.73;5.50;;;;;;;1.08;80.93;94720.20;1685990;84;21193;-71
2021/03/17 07:34:27;;;;;;;10.10;6.73;;;;;;;1.01;81.36;94723.67;1686026;85;21137;-75
2021/03/17 07:37:05;;;;;;;8.70;5.47;;;;;;;1.03;81.27;94716.73;1663139;83;21602;-67
2021/03/17 07:39:42;;;;;;;7.60;4.40;;;;;;;1.00;81.50;94714.98;1697543;84;22201;-70
2021/03/17 07:42:13;;;;;;;8.90;4.90;;;;;;;1.08;81.18;94704.22;1672152;83;21217;-71
2021/03/17 07:44:43;;;;;;;7.63;5.43;;;;;;;1.08;80.90;94718.91;1697789;84;21153;-70
2021/03/17 07:47:12;;;;;;;9.13;6.40;;;;;;;1.03;81.05;94722.81;1726719;83;21148;-68
2021/03/17 07:49:46;;;;;;;12.63;5.80;;;;;;;1.15;81.04;94719.81;1697217;84;21564;-68
2021/03/17 07:52:23;;;;;;;11.70;6.67;;;;;;;1.18;80.99;94718.08;1726721;82;21162;-72
2021/03/17 07:54:55;;;;;;;10.87;7.23;;;;;;;1.28;80.85;94713.78;1726743;83;21149;-72
2021/03/17 07:57:28;;;;;;;6.60;4.40;;;;;;;1.29;80.12;94711.64;1672892;84;21180;-70
2021/03/17 07:59:56;;;;;;;8.13;4.63;;;;;;;1.23;80.29;94708.56;1720767;83;21114;-68
2021/03/17 08:02:25;;;;;;;8.57;6.03;;;;;;;1.16;80.76;94713.73;1726723;82;21207;-66
2021/03/17 08:04:53;;;;;;;6.87;4.40;;;;;;;1.12;80.88;94711.58;1726462;83;21188;-64
2021/03/17 08:07:21;;;;;;;10.20;5.90;;;;;;;1.01;81.15;94713.28;1681980;84;21595;-67
2021/03/17 08:09:51;;;;;;;8.10;5.10;;;;;;;0.96;81.26;94709.36;1726464;83;21146;-65
2021/03/17 08:12:20;;;;;;;7.93;5.17;;;;;;;0.98;81.62;94719.33;1697544;84;21162;-65
2021/03/17 08:14:48;;;;;;;7.03;4.80;;;;;;;0.95;81.66;94727.09;1726856;82;21568;-66
2021/03/17 08:17:30;;;;;;;10.90;6.73;;;;;;;0.88;81.89;94726.62;1726373;83;21157;-66
2021/03/17 08:20:24;;;;;;;11.70;7.20;;;;;;;0.98;82.06;94723.63;1780520;79;23074;-68
2021/03/17 08:22:53;;;;;;;9.37;5.80;;;;;;;0.94;82.00;94737.49;1753992;82;21587;-68
2021/03/17 08:25:45;;;;;;;9.80;5.97;;;;;;;0.81;82.26;94735.27;1754347;81;21132;-65
2021/03/17 08:28:27;;;;;;;7.10;4.43;;;;;;;0.83;82.56;94737.02;1753789;82;21122;-67
2021/03/17 08:30:56;;;;;;;10.30;6.50;;;;;;;0.79;82.84;94731.35;1754055;81;21122;-65
2021/03/17 08:33:39;;;;;;;8.10;4.53;;;;;;;0.93;82.53;94740.93;1753865;81;21560;-64
2021/03/17 08:36:15;;;;;;;9.43;5.80;;;;;;;0.96;82.68;94738.34;1753970;81;21150;-63
2021/03/17 08:38:58;;;;;;;10.37;6.47;;;;;;;1.06;82.09;94737.55;1724476;82;21549;-67
2021/03/17 08:41:47;;;;;;;11.53;6.30;;;;;;;1.03;82.11;94733.20;1753982;82;21595;-64
2021/03/17 08:44:29;;;;;;;4.63;3.00;;;;;;;1.15;82.07;94738.00;1753997;81;21121;-64
2021/03/17 08:47:17;;;;;;;6.70;4.47;;;;;;;1.18;81.86;94736.27;1754357;81;21149;-64
2021/03/17 08:49:53;;;;;;;8.40;5.30;;;;;;;1.21;81.61;94739.30;1724106;82;21094;-64
2021/03/17 08:52:25;;;;;;;9.13;5.90;;;;;;;1.21;81.97;94736.30;1754205;82;21142;-65
2021/03/17 08:54:56;;;;;;;6.17;4.20;;;;;;;1.22;81.83;94735.86;1747826;82;21145;-67
2021/03/17 08:57:25;;;;;;;7.53;4.57;;;;;;;1.30;81.96;94735.45;1745554;81;21086;-71
2021/03/17 09:00:01;;;;;;;6.70;4.50;;;;;;;1.27;81.72;94743.24;1724825;82;21097;-63
2021/03/17 09:02:30;;;;;;;;;;;;;;;1.21;81.44;94741.91;1756493;82;21564;-65
2021/03/17 09:05:04;;;;;;;8.73;5.93;;;;;;;1.18;81.75;94743.20;1720684;83;20137;-63
2021/03/17 09:07:35;;;;;;;8.75;5.85;;;;;;;1.27;81.81;94745.41;1693237;84;21179;-66
2021/03/17 09:10:12;;;;;;;8.60;5.83;;;;;;;1.29;82.02;94744.13;1683422;85;21156;-63
2021/03/17 09:12:45;;;;;;;10.90;5.93;;;;;;;1.34;81.93;94743.70;1684665;85;21165;-65
2021/03/17 09:15:18;;;;;;;9.80;5.28;;;;;;;1.41;81.74;94736.36;1684948;85;21615;-67
2021/03/17 09:17:59;;;;;;;5.17;3.37;;;;;;;1.47;81.80;94749.36;1685160;85;21179;-64
2021/03/17 09:20:48;;;;;;;6.67;4.53;;;;;;;1.45;81.58;94743.28;1684756;85;21141;-65
2021/03/17 09:23:22;;;;;;;6.43;4.10;;;;;;;1.46;81.82;94747.64;1684798;85;21145;-64
2021/03/17 09:25:52;;;;;;;15.80;8.18;;;;;;;1.39;82.01;94746.32;1685001;85;21171;-65
2021/03/17 09:28:31;;;;;;;7.00;4.83;;;;;;;1.41;82.33;94740.67;1684771;85;21117;-66
2021/03/17 09:31:08;;;;;;;6.00;3.90;;;;;;;1.36;82.74;94738.48;1684404;85;21125;-66
2021/03/17 09:33:40;;;;;;;4.00;2.40;;;;;;;1.44;82.62;94743.30;1684463;85;21137;-67
2021/03/17 09:36:19;;;;;;;8.43;4.77;;;;;;;1.45;82.34;94742.42;1684519;85;21161;-68
2021/03/17 09:38:50;;;;;;;7.67;4.63;;;;;;;1.45;82.04;94744.59;1684603;85;21209;-67
2021/03/17 09:41:23;;;;;;;7.00;4.50;;;;;;;1.54;81.90;94746.77;1684223;85;21611;-66
2021/03/17 09:43:58;;;;;;;8.87;6.03;;;;;;;1.56;82.00;94748.50;1683364;85;21188;-68
2021/03/17 09:46:41;;;;;;;8.35;5.50;;;;;;;1.63;81.78;94744.20;1684623;85;21156;-66
2021/03/17 09:49:13;;;;;;;7.17;4.60;;;;;;;1.59;81.48;94751.13;1684666;85;21184;-66
2021/03/17 09:51:45;;;;;;;4.43;2.90;;;;;;;1.51;81.67;94755.42;1684299;85;21165;-66
2021/03/17 09:54:16;;;;;;;5.00;3.73;;;;;;;1.52;81.46;94754.58;1684447;85;21575;-65
2021/03/17 09:56:53;;;;;;;6.43;4.67;;;;;;;1.44;81.81;94757.16;1706002;84;21590;-66
2021/03/17 09:59:34;;;;;;;5.73;3.30;;;;;;;1.57;81.81;94761.09;1705587;84;21160;-67
2021/03/17 10:02:26;;;;;;;5.07;3.33;;;;;;;1.58;81.36;94754.58;1706147;84;21202;-64
2021/03/17 10:04:57;;;;;;;9.67;5.73;;;;;;;1.57;81.37;94759.80;1706259;84;21141;-64
2021/03/17 10:07:27;;;;;;;6.07;3.80;;;;;;;1.51;81.67;94760.22;1705921;84;21315;-64
2021/03/17 10:09:58;;;;;;;7.13;4.27;;;;;;;1.60;81.92;94759.80;1706039;83;21161;-64
2021/03/17 10:12:29;;;;;;;8.53;5.23;;;;;;;1.63;81.78;94759.36;1706016;84;21173;-64
2021/03/17 10:15:02;;;;;;;6.20;4.60;;;;;;;1.73;81.12;94759.81;1705929;84;21153;-64
2021/03/17 10:17:31;;;;;;;8.50;5.23;;;;;;;1.60;81.27;94763.26;1706078;84;21574;-64
2021/03/17 10:20:11;;;;;;;8.43;5.80;;;;;;;1.62;81.47;94764.58;1694721;84;21165;-64
2021/03/17 10:22:39;;;;;;;9.57;5.70;;;;;;;1.68;81.41;94766.73;1691162;84;21300;-64
2021/03/17 10:25:17;;;;;;;10.97;6.63;;;;;;;1.66;81.22;94767.59;1690956;84;21146;-64
2021/03/17 10:27:49;;;;;;;5.73;3.87;;;;;;;1.66;81.42;94765.89;1690949;85;21148;-64
2021/03/17 10:30:27;;;;;;;8.43;5.57;;;;;;;1.66;81.52;94767.59;1690729;85;21166;-64
2021/03/17 10:33:00;;;;;;;7.40;5.47;;;;;;;1.67;81.82;94766.31;1689893;84;21288;-64
2021/03/17 10:35:25;;;;;;;8.37;5.53;;;;;;;1.73;81.48;94763.71;1690930;85;21735;-64
2021/03/17 10:37:53;;;;;;;5.40;2.90;;;;;;;1.68;81.61;94766.73;1690892;85;21722;-64
2021/03/17 10:40:24;;;;;;;8.97;5.93;;;;;;;1.65;81.79;94760.67;1690747;85;21177;-64
2021/03/17 10:43:10;;;;;;;8.90;5.50;;;;;;;1.66;82.03;94761.99;1690940;84;21311;-64
2021/03/17 10:45:49;;;;;;;8.67;4.67;;;;;;;1.69;82.02;94757.23;1691234;84;21133;-64
2021/03/17 10:48:22;;;;;;;8.00;5.10;;;;;;;1.75;82.20;94761.56;1691160;84;21163;-64
2021/03/17 10:50:52;;;;;;;7.40;4.10;;;;;;;1.75;82.03;94761.12;1691160;85;21150;-64
2021/03/17 10:53:28;;;;;;;9.30;4.97;;;;;;;1.75;82.25;94756.36;1691126;85;21296;-64
2021/03/17 10:56:00;;;;;;;6.37;4.10;;;;;;;1.77;81.88;94763.74;1690783;84;21166;-64
2021/03/17 10:58:31;;;;;;;6.47;4.07;;;;;;;1.72;81.73;94749.42;1690891;85;21328;-64
2021/03/17 11:01:03;;;;;;;7.60;5.00;;;;;;;1.81;81.71;94754.62;1690684;84;21141;-64
2021/03/17 11:03:38;;;;;;;5.57;4.03;;;;;;;1.92;81.51;94757.26;1691049;85;21144;-64
2021/03/17 11:06:20;;;;;;;6.23;4.77;;;;;;;1.99;81.60;94757.70;1691129;85;21679;-64
2021/03/17 11:09:06;;;;;;;6.80;4.73;;;;;;;2.11;81.58;94755.08;1691086;84;21138;-64
2021/03/17 11:11:50;;;;;;;6.50;4.97;;;;;;;2.12;81.38;94759.88;1691082;84;21664;-64
2021/03/17 11:14:34;;;;;;;6.97;4.37;;;;;;;2.21;80.98;94749.89;1690695;85;21283;-64
2021/03/17 11:17:09;;;;;;;7.65;4.78;;;;;;;2.35;80.30;94752.06;1690976;85;21248;-64
2021/03/17 11:19:37;;;;;;;6.27;4.40;;;;;;;2.33;80.11;94742.94;1666400;85;21142;-64
2021/03/17 11:22:05;;;;;;;5.73;3.60;;;;;;;2.39;80.09;94749.87;1683480;85;21283;-64
2021/03/17 11:24:33;;;;;;;7.53;5.03;;;;;;;2.41;79.92;94749.87;1683593;85;21245;-64
2021/03/17 11:27:01;;;;;;;5.73;3.93;;;;;;;2.45;79.69;94751.63;1683874;84;21299;-64
2021/03/17 11:29:30;;;;;;;7.37;4.37;;;;;;;2.45;79.43;94749.88;1683322;84;21170;-64
2021/03/17 11:32:08;;;;;;;4.37;2.77;;;;;;;2.44;78.93;94750.73;1683682;85;21153;-64
2021/03/17 11:34:36;;;;;;;7.57;5.00;;;;;;;2.45;79.30;94751.19;1683729;85;21929;-64
2021/03/17 11:37:04;;;;;;;6.03;3.43;;;;;;;2.36;79.71;94757.69;1683372;84;21141;-64
2021/03/17 11:39:32;;;;;;;6.07;3.87;;;;;;;2.28;80.03;94747.28;1683646;85;21283;-64
2021/03/17 11:42:00;;;;;;;7.77;4.10;;;;;;;2.34;80.21;94756.41;1683456;85;21166;-64
2021/03/17 11:44:27;;;;;;;4.67;3.23;;;;;;;2.30;80.08;94755.10;1683123;85;21157;-64
2021/03/17 11:46:55;;;;;;;4.13;2.07;;;;;;;2.25;80.19;94752.94;1683681;84;21292;-64
2021/03/17 11:49:23;;;;;;;4.60;3.10;;;;;;;2.17;80.24;94750.34;1683713;85;21110;-64
2021/03/17 11:51:51;;;;;;;2.90;1.70;;;;;;;2.13;80.63;94753.35;1683655;84;21291;-64
2021/03/17 11:54:18;;;;;;;3.17;2.53;;;;;;;2.07;80.50;94761.61;1683571;84;21149;-64
2021/03/17 11:56:46;;;;;;;4.87;3.50;;;;;;;2.19;80.69;94758.13;1683258;85;21146;-64
2021/03/17 11:59:14;;;;;;;4.47;2.73;;;;;;;2.30;80.14;94756.41;1683357;85;21157;-64
2021/03/17 12:01:41;;;;;;;2.90;1.60;;;;;;;2.33;80.02;94761.60;1683344;85;21600;-64
2021/03/17 12:04:10;;;;;;;4.03;2.93;;;;;;;2.31;79.82;94762.89;1683280;84;21147;-64
2021/03/17 12:06:38;;;;;;;4.10;3.00;;;;;;;2.31;79.84;94756.38;1683566;85;21572;-64
2021/03/17 12:09:06;;;;;;;5.10;2.20;;;;;;;2.27;79.48;94758.58;1658562;85;21299;-64
2021/03/17 12:11:35;;;;;;;4.60;2.60;;;;;;;2.22;79.55;94764.63;1683291;84;21153;-64